This is the latest recevied weather packets stored in our database for station/object EA8DNP-14. If no packets are shown the sender has not sent any weather packets the latest 10 day(s).
| Time | Temp. | Humidity | Pressure | Rain* | Wind** | Luminosity | Snow |
|---|---|---|---|---|---|---|---|
| 1787736874 | 26.67° C | 36% | 903.5 hPa | - | - | - | - |
| 1787735974 | 26.67° C | 36% | 903.2 hPa | - | - | - | - |
| 1787735074 | 26.67° C | 38% | 902.9 hPa | - | - | - | - |
| 1787734174 | 25.56° C | 40% | 903 hPa | - | - | - | - |
| 1787733274 | 23.89° C | 42% | 902.9 hPa | - | - | - | - |
| 1787732373 | 23.33° C | 43% | 902.8 hPa | - | - | - | - |
| 1787731473 | 22.22° C | 45% | 902.6 hPa | - | - | - | - |
| 1787730573 | 21.11° C | 48% | 902.6 hPa | - | - | - | - |
| 1787729673 | 18.89° C | 54% | 902.5 hPa | - | - | - | - |
| 1787728773 | 16.11° C | 62% | 902.3 hPa | - | - | - | - |
| 1787727873 | 11.11° C | 71% | 902.3 hPa | - | - | - | - |
| 1787726973 | 7.22° C | 77% | 902.3 hPa | - | - | - | - |
| 1787726073 | 7.22° C | 78% | 902.2 hPa | - | - | - | - |
| 1787725173 | 7.22° C | 80% | 902.1 hPa | - | - | - | - |
| 1787724273 | 7.22° C | 80% | 902 hPa | - | - | - | - |
| 1787723373 | 7.78° C | 80% | 902.2 hPa | - | - | - | - |
| 1787722472 | 7.78° C | 81% | 902.2 hPa | - | - | - | - |
| 1787721572 | 7.78° C | 81% | 902.1 hPa | - | - | - | - |
| 1787720970 | 7.78° C | 81% | 902 hPa | - | - | - | - |
| 1787720674 | 7.78° C | 81% | 902 hPa | - | - | - | - |
| 1787719772 | 7.78° C | 82% | 901.9 hPa | - | - | - | - |
| 1787718872 | 7.78° C | 81% | 901.9 hPa | - | - | - | - |
| 1787717972 | 7.78° C | 82% | 902 hPa | - | - | - | - |
| 1787717072 | 7.78° C | 82% | 902 hPa | - | - | - | - |
| 1787716172 | 7.78° C | 82% | 902 hPa | - | - | - | - |
* Rain since midnight (hover to see other rain measurements)
** Current wind speed in m/s (hover to see current wind gust speed)